sensor_id;sensor_type;location;lat;lon;timestamp;P1;durP1;ratioP1;P2;durP2;ratioP2
18280;SDS011;9266;51.132;17.062;2023-12-20T00:01:01;14.67;;;11.03;;
18280;SDS011;9266;51.132;17.062;2023-12-20T00:03:28;15.70;;;11.33;;
18280;SDS011;9266;51.132;17.062;2023-12-20T00:05:55;12.70;;;10.50;;
18280;SDS011;9266;51.132;17.062;2023-12-20T00:08:22;13.83;;;11.03;;
18280;SDS011;9266;51.132;17.062;2023-12-20T00:10:49;14.50;;;11.23;;
18280;SDS011;9266;51.132;17.062;2023-12-20T00:13:16;13.20;;;10.90;;
18280;SDS011;9266;51.132;17.062;2023-12-20T00:15:44;15.17;;;11.57;;
18280;SDS011;9266;51.132;17.062;2023-12-20T00:18:11;15.47;;;11.57;;
18280;SDS011;9266;51.132;17.062;2023-12-20T00:20:38;14.33;;;12.00;;
18280;SDS011;9266;51.132;17.062;2023-12-20T00:23:05;13.73;;;11.20;;
18280;SDS011;9266;51.132;17.062;2023-12-20T00:25:33;15.07;;;11.37;;
18280;SDS011;9266;51.132;17.062;2023-12-20T00:28:00;16.97;;;11.63;;
18280;SDS011;9266;51.132;17.062;2023-12-20T00:30:27;16.93;;;12.87;;
18280;SDS011;9266;51.132;17.062;2023-12-20T00:32:55;15.63;;;11.80;;
18280;SDS011;9266;51.132;17.062;2023-12-20T00:35:22;17.27;;;12.20;;
18280;SDS011;9266;51.132;17.062;2023-12-20T00:37:49;19.23;;;14.17;;
18280;SDS011;9266;51.132;17.062;2023-12-20T00:40:16;16.40;;;12.37;;
18280;SDS011;9266;51.132;17.062;2023-12-20T00:42:43;19.33;;;15.27;;
18280;SDS011;9266;51.132;17.062;2023-12-20T00:45:12;18.83;;;15.60;;
18280;SDS011;9266;51.132;17.062;2023-12-20T00:47:39;18.67;;;15.93;;
18280;SDS011;9266;51.132;17.062;2023-12-20T00:50:08;21.03;;;15.77;;
18280;SDS011;9266;51.132;17.062;2023-12-20T00:52:35;19.53;;;15.00;;
18280;SDS011;9266;51.132;17.062;2023-12-20T00:55:02;22.83;;;15.00;;
18280;SDS011;9266;51.132;17.062;2023-12-20T00:57:30;19.23;;;13.43;;
18280;SDS011;9266;51.132;17.062;2023-12-20T00:59:57;18.73;;;13.47;;
18280;SDS011;9266;51.132;17.062;2023-12-20T01:02:24;19.10;;;12.13;;
18280;SDS011;9266;51.132;17.062;2023-12-20T01:04:51;17.43;;;12.43;;
18280;SDS011;9266;51.132;17.062;2023-12-20T01:07:19;18.73;;;11.50;;
18280;SDS011;9266;51.132;17.062;2023-12-20T01:09:46;14.47;;;11.20;;
18280;SDS011;9266;51.132;17.062;2023-12-20T01:12:13;16.33;;;11.10;;
18280;SDS011;9266;51.132;17.062;2023-12-20T01:14:40;13.60;;;10.00;;
18280;SDS011;9266;51.132;17.062;2023-12-20T01:17:07;16.33;;;10.43;;
18280;SDS011;9266;51.132;17.062;2023-12-20T01:19:34;12.87;;;9.37;;
18280;SDS011;9266;51.132;17.062;2023-12-20T01:22:01;13.30;;;9.37;;
18280;SDS011;9266;51.132;17.062;2023-12-20T01:24:30;14.27;;;9.60;;
18280;SDS011;9266;51.132;17.062;2023-12-20T01:26:57;11.20;;;9.07;;
18280;SDS011;9266;51.132;17.062;2023-12-20T01:29:23;11.23;;;8.53;;
18280;SDS011;9266;51.132;17.062;2023-12-20T01:31:49;12.50;;;10.10;;
18280;SDS011;9266;51.132;17.062;2023-12-20T01:34:17;12.20;;;8.97;;
18280;SDS011;9266;51.132;17.062;2023-12-20T01:36:43;12.13;;;9.33;;
18280;SDS011;9266;51.132;17.062;2023-12-20T01:39:11;11.63;;;9.33;;
18280;SDS011;9266;51.132;17.062;2023-12-20T01:41:39;11.17;;;9.30;;
18280;SDS011;9266;51.132;17.062;2023-12-20T01:44:06;12.00;;;9.20;;
18280;SDS011;9266;51.132;17.062;2023-12-20T01:46:33;10.70;;;9.10;;
18280;SDS011;9266;51.132;17.062;2023-12-20T01:49:00;12.00;;;8.53;;
18280;SDS011;9266;51.132;17.062;2023-12-20T01:51:27;10.57;;;9.10;;
18280;SDS011;9266;51.132;17.062;2023-12-20T01:53:54;10.87;;;9.60;;
18280;SDS011;9266;51.132;17.062;2023-12-20T01:56:22;10.87;;;9.43;;
18280;SDS011;9266;51.132;17.062;2023-12-20T01:58:51;11.13;;;8.80;;
18280;SDS011;9266;51.132;17.062;2023-12-20T02:01:18;11.47;;;9.90;;
18280;SDS011;9266;51.132;17.062;2023-12-20T02:03:45;12.17;;;10.20;;
18280;SDS011;9266;51.132;17.062;2023-12-20T02:08:49;11.63;;;8.87;;
18280;SDS011;9266;51.132;17.062;2023-12-20T02:11:16;9.43;;;8.40;;
18280;SDS011;9266;51.132;17.062;2023-12-20T02:13:43;10.97;;;9.07;;
18280;SDS011;9266;51.132;17.062;2023-12-20T02:16:12;12.17;;;9.33;;
18280;SDS011;9266;51.132;17.062;2023-12-20T02:18:42;13.07;;;8.00;;
18280;SDS011;9266;51.132;17.062;2023-12-20T02:21:12;11.43;;;8.73;;
18280;SDS011;9266;51.132;17.062;2023-12-20T02:23:42;9.57;;;8.20;;
18280;SDS011;9266;51.132;17.062;2023-12-20T02:26:12;10.53;;;8.33;;
18280;SDS011;9266;51.132;17.062;2023-12-20T02:28:43;8.13;;;7.27;;
18280;SDS011;9266;51.132;17.062;2023-12-20T02:31:13;9.03;;;7.37;;
18280;SDS011;9266;51.132;17.062;2023-12-20T02:33:43;8.50;;;7.40;;
18280;SDS011;9266;51.132;17.062;2023-12-20T02:36:13;7.80;;;6.50;;
18280;SDS011;9266;51.132;17.062;2023-12-20T02:38:42;8.40;;;6.87;;
18280;SDS011;9266;51.132;17.062;2023-12-20T02:41:09;8.23;;;6.87;;
18280;SDS011;9266;51.132;17.062;2023-12-20T02:43:41;7.13;;;6.40;;
18280;SDS011;9266;51.132;17.062;2023-12-20T02:46:09;10.10;;;6.30;;
18280;SDS011;9266;51.132;17.062;2023-12-20T02:48:36;7.80;;;6.33;;
18280;SDS011;9266;51.132;17.062;2023-12-20T02:51:03;7.83;;;6.60;;
18280;SDS011;9266;51.132;17.062;2023-12-20T02:53:30;7.37;;;6.03;;
18280;SDS011;9266;51.132;17.062;2023-12-20T02:55:58;6.93;;;6.23;;
18280;SDS011;9266;51.132;17.062;2023-12-20T02:58:25;6.90;;;5.50;;
18280;SDS011;9266;51.132;17.062;2023-12-20T03:00:52;6.77;;;5.80;;
18280;SDS011;9266;51.132;17.062;2023-12-20T03:03:19;6.37;;;5.00;;
18280;SDS011;9266;51.132;17.062;2023-12-20T03:05:46;6.73;;;5.87;;
18280;SDS011;9266;51.132;17.062;2023-12-20T03:08:13;5.77;;;5.10;;
18280;SDS011;9266;51.132;17.062;2023-12-20T03:10:40;7.37;;;5.70;;
18280;SDS011;9266;51.132;17.062;2023-12-20T03:13:10;7.63;;;5.93;;
18280;SDS011;9266;51.132;17.062;2023-12-20T03:15:40;6.30;;;5.40;;
18280;SDS011;9266;51.132;17.062;2023-12-20T03:18:11;6.97;;;5.63;;
18280;SDS011;9266;51.132;17.062;2023-12-20T03:20:39;6.90;;;5.93;;
18280;SDS011;9266;51.132;17.062;2023-12-20T03:23:06;8.20;;;6.23;;
18280;SDS011;9266;51.132;17.062;2023-12-20T03:25:33;7.30;;;5.77;;
18280;SDS011;9266;51.132;17.062;2023-12-20T03:28:00;6.53;;;5.53;;
18280;SDS011;9266;51.132;17.062;2023-12-20T03:30:29;6.33;;;5.13;;
18280;SDS011;9266;51.132;17.062;2023-12-20T03:32:56;7.27;;;5.60;;
18280;SDS011;9266;51.132;17.062;2023-12-20T03:35:22;6.67;;;5.03;;
18280;SDS011;9266;51.132;17.062;2023-12-20T03:37:49;4.87;;;4.37;;
18280;SDS011;9266;51.132;17.062;2023-12-20T03:40:16;5.07;;;4.00;;
18280;SDS011;9266;51.132;17.062;2023-12-20T03:42:46;5.03;;;4.13;;
18280;SDS011;9266;51.132;17.062;2023-12-20T03:45:16;4.57;;;4.00;;
18280;SDS011;9266;51.132;17.062;2023-12-20T03:47:45;4.80;;;3.83;;
18280;SDS011;9266;51.132;17.062;2023-12-20T03:50:12;4.57;;;3.60;;
18280;SDS011;9266;51.132;17.062;2023-12-20T03:52:42;4.77;;;3.70;;
18280;SDS011;9266;51.132;17.062;2023-12-20T03:55:10;4.77;;;3.40;;
18280;SDS011;9266;51.132;17.062;2023-12-20T03:57:37;3.80;;;3.40;;
18280;SDS011;9266;51.132;17.062;2023-12-20T04:00:04;3.83;;;3.17;;
18280;SDS011;9266;51.132;17.062;2023-12-20T04:02:35;4.40;;;3.30;;
18280;SDS011;9266;51.132;17.062;2023-12-20T04:05:04;3.77;;;3.00;;
18280;SDS011;9266;51.132;17.062;2023-12-20T04:07:31;4.03;;;3.50;;
18280;SDS011;9266;51.132;17.062;2023-12-20T04:09:59;4.07;;;3.20;;
18280;SDS011;9266;51.132;17.062;2023-12-20T04:12:27;3.47;;;3.10;;
18280;SDS011;9266;51.132;17.062;2023-12-20T04:14:54;5.00;;;3.63;;
18280;SDS011;9266;51.132;17.062;2023-12-20T04:17:21;4.00;;;3.37;;
18280;SDS011;9266;51.132;17.062;2023-12-20T04:19:48;3.67;;;3.30;;
18280;SDS011;9266;51.132;17.062;2023-12-20T04:22:17;3.77;;;3.37;;
18280;SDS011;9266;51.132;17.062;2023-12-20T04:24:47;3.57;;;3.13;;
18280;SDS011;9266;51.132;17.062;2023-12-20T04:27:14;3.70;;;3.37;;
18280;SDS011;9266;51.132;17.062;2023-12-20T04:29:42;3.43;;;3.13;;
18280;SDS011;9266;51.132;17.062;2023-12-20T04:32:09;5.53;;;3.93;;
18280;SDS011;9266;51.132;17.062;2023-12-20T04:34:36;4.00;;;3.60;;
18280;SDS011;9266;51.132;17.062;2023-12-20T04:37:03;3.50;;;3.20;;
18280;SDS011;9266;51.132;17.062;2023-12-20T04:39:31;4.03;;;3.63;;
18280;SDS011;9266;51.132;17.062;2023-12-20T04:41:59;3.60;;;3.23;;
18280;SDS011;9266;51.132;17.062;2023-12-20T04:44:26;3.30;;;3.00;;
18280;SDS011;9266;51.132;17.062;2023-12-20T04:46:53;4.27;;;3.63;;
18280;SDS011;9266;51.132;17.062;2023-12-20T04:49:21;4.53;;;3.50;;
18280;SDS011;9266;51.132;17.062;2023-12-20T04:51:48;4.57;;;3.83;;
18280;SDS011;9266;51.132;17.062;2023-12-20T04:54:15;4.17;;;3.77;;
18280;SDS011;9266;51.132;17.062;2023-12-20T04:56:49;3.87;;;3.33;;
18280;SDS011;9266;51.132;17.062;2023-12-20T04:59:19;4.23;;;3.67;;
18280;SDS011;9266;51.132;17.062;2023-12-20T05:01:49;4.07;;;3.40;;
18280;SDS011;9266;51.132;17.062;2023-12-20T05:04:19;3.90;;;3.50;;
18280;SDS011;9266;51.132;17.062;2023-12-20T05:06:49;5.50;;;3.90;;
18280;SDS011;9266;51.132;17.062;2023-12-20T05:09:19;4.30;;;3.30;;
18280;SDS011;9266;51.132;17.062;2023-12-20T05:11:47;4.53;;;4.03;;
18280;SDS011;9266;51.132;17.062;2023-12-20T05:14:14;3.40;;;3.10;;
18280;SDS011;9266;51.132;17.062;2023-12-20T05:16:42;4.97;;;3.30;;
18280;SDS011;9266;51.132;17.062;2023-12-20T05:19:09;3.87;;;3.40;;
18280;SDS011;9266;51.132;17.062;2023-12-20T05:21:35;6.37;;;3.87;;
18280;SDS011;9266;51.132;17.062;2023-12-20T05:24:03;3.47;;;3.17;;
18280;SDS011;9266;51.132;17.062;2023-12-20T05:26:30;3.87;;;3.30;;
18280;SDS011;9266;51.132;17.062;2023-12-20T05:28:59;3.37;;;3.07;;
18280;SDS011;9266;51.132;17.062;2023-12-20T05:31:26;3.83;;;3.43;;
18280;SDS011;9266;51.132;17.062;2023-12-20T05:33:53;3.57;;;3.27;;
18280;SDS011;9266;51.132;17.062;2023-12-20T05:36:20;3.37;;;3.07;;
18280;SDS011;9266;51.132;17.062;2023-12-20T05:38:47;5.47;;;3.30;;
18280;SDS011;9266;51.132;17.062;2023-12-20T05:41:19;4.00;;;3.70;;
18280;SDS011;9266;51.132;17.062;2023-12-20T05:43:46;3.97;;;3.53;;
18280;SDS011;9266;51.132;17.062;2023-12-20T05:46:17;4.13;;;3.23;;
18280;SDS011;9266;51.132;17.062;2023-12-20T05:48:47;4.20;;;3.80;;
18280;SDS011;9266;51.132;17.062;2023-12-20T05:51:16;6.47;;;3.50;;
18280;SDS011;9266;51.132;17.062;2023-12-20T05:53:44;4.83;;;3.83;;
18280;SDS011;9266;51.132;17.062;2023-12-20T05:56:11;4.93;;;4.40;;
18280;SDS011;9266;51.132;17.062;2023-12-20T05:58:38;3.97;;;3.50;;
18280;SDS011;9266;51.132;17.062;2023-12-20T06:01:05;3.70;;;3.30;;
18280;SDS011;9266;51.132;17.062;2023-12-20T06:03:34;4.47;;;4.07;;
18280;SDS011;9266;51.132;17.062;2023-12-20T06:06:04;4.20;;;3.80;;
18280;SDS011;9266;51.132;17.062;2023-12-20T06:08:32;5.83;;;4.23;;
18280;SDS011;9266;51.132;17.062;2023-12-20T06:10:59;5.30;;;4.10;;
18280;SDS011;9266;51.132;17.062;2023-12-20T06:13:26;6.33;;;5.20;;
18280;SDS011;9266;51.132;17.062;2023-12-20T06:15:53;8.57;;;4.70;;
18280;SDS011;9266;51.132;17.062;2023-12-20T06:18:21;6.03;;;4.57;;
18280;SDS011;9266;51.132;17.062;2023-12-20T06:20:54;7.80;;;5.20;;
18280;SDS011;9266;51.132;17.062;2023-12-20T06:23:21;7.63;;;4.67;;
18280;SDS011;9266;51.132;17.062;2023-12-20T06:25:48;5.60;;;4.50;;
18280;SDS011;9266;51.132;17.062;2023-12-20T06:28:18;5.00;;;4.47;;
18280;SDS011;9266;51.132;17.062;2023-12-20T06:30:46;4.60;;;3.90;;
18280;SDS011;9266;51.132;17.062;2023-12-20T06:33:15;6.60;;;4.10;;
18280;SDS011;9266;51.132;17.062;2023-12-20T06:35:43;5.43;;;3.90;;
18280;SDS011;9266;51.132;17.062;2023-12-20T06:38:12;4.40;;;3.77;;
18280;SDS011;9266;51.132;17.062;2023-12-20T06:40:39;3.67;;;3.33;;
18280;SDS011;9266;51.132;17.062;2023-12-20T06:43:06;4.13;;;3.50;;
18280;SDS011;9266;51.132;17.062;2023-12-20T06:45:33;4.80;;;4.30;;
18280;SDS011;9266;51.132;17.062;2023-12-20T06:47:59;4.30;;;3.63;;
18280;SDS011;9266;51.132;17.062;2023-12-20T06:50:27;4.20;;;3.77;;
18280;SDS011;9266;51.132;17.062;2023-12-20T06:52:54;3.93;;;3.63;;
18280;SDS011;9266;51.132;17.062;2023-12-20T06:55:22;7.43;;;3.67;;
18280;SDS011;9266;51.132;17.062;2023-12-20T06:57:49;4.47;;;4.07;;
18280;SDS011;9266;51.132;17.062;2023-12-20T07:00:18;5.47;;;4.00;;
18280;SDS011;9266;51.132;17.062;2023-12-20T07:02:46;5.17;;;4.10;;
18280;SDS011;9266;51.132;17.062;2023-12-20T07:05:15;4.40;;;3.83;;
18280;SDS011;9266;51.132;17.062;2023-12-20T07:07:44;4.23;;;3.83;;
18280;SDS011;9266;51.132;17.062;2023-12-20T07:10:11;5.53;;;4.17;;
18280;SDS011;9266;51.132;17.062;2023-12-20T07:12:40;4.03;;;3.53;;
18280;SDS011;9266;51.132;17.062;2023-12-20T07:15:07;5.43;;;3.60;;
18280;SDS011;9266;51.132;17.062;2023-12-20T07:17:35;4.47;;;3.70;;
18280;SDS011;9266;51.132;17.062;2023-12-20T07:20:02;4.80;;;3.70;;
18280;SDS011;9266;51.132;17.062;2023-12-20T07:22:30;5.47;;;4.20;;
18280;SDS011;9266;51.132;17.062;2023-12-20T07:24:57;4.83;;;3.87;;
18280;SDS011;9266;51.132;17.062;2023-12-20T07:27:24;5.33;;;4.10;;
18280;SDS011;9266;51.132;17.062;2023-12-20T07:29:53;5.60;;;3.60;;
18280;SDS011;9266;51.132;17.062;2023-12-20T07:32:20;5.40;;;3.83;;
18280;SDS011;9266;51.132;17.062;2023-12-20T07:34:48;3.40;;;3.10;;
18280;SDS011;9266;51.132;17.062;2023-12-20T07:37:15;3.67;;;3.33;;
18280;SDS011;9266;51.132;17.062;2023-12-20T07:39:42;3.33;;;3.00;;
18280;SDS011;9266;51.132;17.062;2023-12-20T07:42:09;5.30;;;3.20;;
18280;SDS011;9266;51.132;17.062;2023-12-20T07:44:36;4.73;;;3.07;;
18280;SDS011;9266;51.132;17.062;2023-12-20T07:47:04;3.27;;;2.97;;
18280;SDS011;9266;51.132;17.062;2023-12-20T07:49:31;3.83;;;2.80;;
18280;SDS011;9266;51.132;17.062;2023-12-20T07:51:58;3.40;;;2.80;;
18280;SDS011;9266;51.132;17.062;2023-12-20T07:54:25;4.30;;;3.90;;
18280;SDS011;9266;51.132;17.062;2023-12-20T07:56:52;3.60;;;2.77;;
18280;SDS011;9266;51.132;17.062;2023-12-20T07:59:19;3.80;;;3.40;;
18280;SDS011;9266;51.132;17.062;2023-12-20T08:01:49;3.40;;;3.07;;
18280;SDS011;9266;51.132;17.062;2023-12-20T08:04:17;3.80;;;3.10;;
18280;SDS011;9266;51.132;17.062;2023-12-20T08:06:44;6.03;;;3.20;;
18280;SDS011;9266;51.132;17.062;2023-12-20T08:09:11;4.03;;;2.90;;
18280;SDS011;9266;51.132;17.062;2023-12-20T08:11:38;3.10;;;2.80;;
18280;SDS011;9266;51.132;17.062;2023-12-20T08:14:05;3.83;;;3.10;;
18280;SDS011;9266;51.132;17.062;2023-12-20T08:16:32;3.90;;;2.83;;
18280;SDS011;9266;51.132;17.062;2023-12-20T08:18:59;3.33;;;2.93;;
18280;SDS011;9266;51.132;17.062;2023-12-20T08:21:27;3.80;;;3.07;;
18280;SDS011;9266;51.132;17.062;2023-12-20T08:23:54;2.80;;;2.60;;
18280;SDS011;9266;51.132;17.062;2023-12-20T08:26:25;3.70;;;3.00;;
18280;SDS011;9266;51.132;17.062;2023-12-20T08:28:56;3.57;;;3.10;;
18280;SDS011;9266;51.132;17.062;2023-12-20T08:31:23;5.43;;;3.43;;
18280;SDS011;9266;51.132;17.062;2023-12-20T08:33:51;5.17;;;2.90;;
18280;SDS011;9266;51.132;17.062;2023-12-20T08:36:19;5.60;;;3.73;;
18280;SDS011;9266;51.132;17.062;2023-12-20T08:38:49;3.53;;;3.23;;
18280;SDS011;9266;51.132;17.062;2023-12-20T08:41:17;4.33;;;3.07;;
18280;SDS011;9266;51.132;17.062;2023-12-20T08:43:45;5.83;;;4.93;;
18280;SDS011;9266;51.132;17.062;2023-12-20T08:46:13;3.47;;;3.17;;
18280;SDS011;9266;51.132;17.062;2023-12-20T08:48:40;5.83;;;3.70;;
18280;SDS011;9266;51.132;17.062;2023-12-20T08:51:07;2.97;;;2.70;;
18280;SDS011;9266;51.132;17.062;2023-12-20T08:53:34;3.27;;;2.97;;
18280;SDS011;9266;51.132;17.062;2023-12-20T08:56:03;3.40;;;3.10;;
18280;SDS011;9266;51.132;17.062;2023-12-20T08:58:30;4.53;;;3.30;;
18280;SDS011;9266;51.132;17.062;2023-12-20T09:00:58;3.33;;;2.97;;
18280;SDS011;9266;51.132;17.062;2023-12-20T09:03:25;3.87;;;3.00;;
18280;SDS011;9266;51.132;17.062;2023-12-20T09:05:52;4.20;;;2.90;;
18280;SDS011;9266;51.132;17.062;2023-12-20T09:08:19;4.67;;;2.80;;
18280;SDS011;9266;51.132;17.062;2023-12-20T09:10:46;10.80;;;7.20;;
18280;SDS011;9266;51.132;17.062;2023-12-20T09:13:15;2.80;;;2.50;;
18280;SDS011;9266;51.132;17.062;2023-12-20T09:15:42;3.67;;;3.27;;
18280;SDS011;9266;51.132;17.062;2023-12-20T09:18:09;3.37;;;3.07;;
18280;SDS011;9266;51.132;17.062;2023-12-20T09:20:36;3.20;;;2.90;;
18280;SDS011;9266;51.132;17.062;2023-12-20T09:23:03;3.47;;;3.00;;
18280;SDS011;9266;51.132;17.062;2023-12-20T09:25:30;3.97;;;2.90;;
18280;SDS011;9266;51.132;17.062;2023-12-20T09:27:57;3.50;;;3.20;;
18280;SDS011;9266;51.132;17.062;2023-12-20T09:30:25;3.40;;;3.10;;
18280;SDS011;9266;51.132;17.062;2023-12-20T09:32:52;4.93;;;3.43;;
18280;SDS011;9266;51.132;17.062;2023-12-20T09:35:19;3.30;;;3.00;;
18280;SDS011;9266;51.132;17.062;2023-12-20T09:37:46;2.80;;;2.50;;
18280;SDS011;9266;51.132;17.062;2023-12-20T09:40:13;4.03;;;3.17;;
18280;SDS011;9266;51.132;17.062;2023-12-20T09:42:43;4.67;;;3.50;;
18280;SDS011;9266;51.132;17.062;2023-12-20T09:45:20;4.20;;;3.80;;
18280;SDS011;9266;51.132;17.062;2023-12-20T09:47:50;5.53;;;4.17;;
18280;SDS011;9266;51.132;17.062;2023-12-20T09:50:21;4.40;;;3.97;;
18280;SDS011;9266;51.132;17.062;2023-12-20T09:52:51;4.87;;;4.07;;
18280;SDS011;9266;51.132;17.062;2023-12-20T09:55:21;6.13;;;4.90;;
18280;SDS011;9266;51.132;17.062;2023-12-20T09:57:54;6.17;;;4.53;;
18280;SDS011;9266;51.132;17.062;2023-12-20T10:00:25;4.83;;;4.33;;
18280;SDS011;9266;51.132;17.062;2023-12-20T10:02:56;5.23;;;4.30;;
18280;SDS011;9266;51.132;17.062;2023-12-20T10:05:26;5.33;;;4.57;;
18280;SDS011;9266;51.132;17.062;2023-12-20T10:07:53;6.53;;;4.27;;
18280;SDS011;9266;51.132;17.062;2023-12-20T10:10:20;5.33;;;4.50;;
18280;SDS011;9266;51.132;17.062;2023-12-20T10:15:32;4.73;;;4.33;;
18280;SDS011;9266;51.132;17.062;2023-12-20T10:18:01;6.23;;;4.70;;
18280;SDS011;9266;51.132;17.062;2023-12-20T10:20:28;5.17;;;4.30;;
18280;SDS011;9266;51.132;17.062;2023-12-20T10:22:56;7.33;;;5.00;;
18280;SDS011;9266;51.132;17.062;2023-12-20T10:25:23;6.73;;;4.00;;
18280;SDS011;9266;51.132;17.062;2023-12-20T10:28:08;5.70;;;4.13;;
18280;SDS011;9266;51.132;17.062;2023-12-20T10:30:35;4.17;;;3.47;;
18280;SDS011;9266;51.132;17.062;2023-12-20T10:33:04;4.10;;;3.60;;
18280;SDS011;9266;51.132;17.062;2023-12-20T10:35:32;4.73;;;3.60;;
18280;SDS011;9266;51.132;17.062;2023-12-20T10:38:00;5.23;;;3.80;;
18280;SDS011;9266;51.132;17.062;2023-12-20T10:40:30;4.47;;;3.73;;
18280;SDS011;9266;51.132;17.062;2023-12-20T10:42:57;4.27;;;3.87;;
18280;SDS011;9266;51.132;17.062;2023-12-20T10:45:26;5.87;;;3.53;;
18280;SDS011;9266;51.132;17.062;2023-12-20T10:47:56;5.20;;;3.87;;
18280;SDS011;9266;51.132;17.062;2023-12-20T10:50:26;4.60;;;3.33;;
18280;SDS011;9266;51.132;17.062;2023-12-20T10:52:54;6.43;;;3.90;;
18280;SDS011;9266;51.132;17.062;2023-12-20T10:55:21;7.07;;;4.03;;
18280;SDS011;9266;51.132;17.062;2023-12-20T10:57:50;6.33;;;4.00;;
18280;SDS011;9266;51.132;17.062;2023-12-20T11:00:18;7.57;;;4.50;;
18280;SDS011;9266;51.132;17.062;2023-12-20T11:02:48;5.07;;;4.20;;
18280;SDS011;9266;51.132;17.062;2023-12-20T11:05:21;6.63;;;4.20;;
18280;SDS011;9266;51.132;17.062;2023-12-20T11:07:58;11.73;;;4.70;;
18280;SDS011;9266;51.132;17.062;2023-12-20T11:10:35;6.20;;;3.80;;
18280;SDS011;9266;51.132;17.062;2023-12-20T11:13:12;6.93;;;3.40;;
18280;SDS011;9266;51.132;17.062;2023-12-20T11:15:46;4.20;;;3.33;;
18280;SDS011;9266;51.132;17.062;2023-12-20T11:18:13;6.50;;;3.30;;
18280;SDS011;9266;51.132;17.062;2023-12-20T11:20:43;8.00;;;3.80;;
18280;SDS011;9266;51.132;17.062;2023-12-20T11:23:10;6.33;;;3.70;;
18280;SDS011;9266;51.132;17.062;2023-12-20T11:25:46;3.67;;;3.30;;
18280;SDS011;9266;51.132;17.062;2023-12-20T11:28:14;5.93;;;3.30;;
18280;SDS011;9266;51.132;17.062;2023-12-20T11:30:46;7.03;;;3.43;;
18280;SDS011;9266;51.132;17.062;2023-12-20T11:33:15;6.77;;;3.30;;
18280;SDS011;9266;51.132;17.062;2023-12-20T11:35:44;5.57;;;3.17;;
18280;SDS011;9266;51.132;17.062;2023-12-20T11:38:12;4.60;;;3.10;;
18280;SDS011;9266;51.132;17.062;2023-12-20T11:40:42;4.47;;;3.10;;
18280;SDS011;9266;51.132;17.062;2023-12-20T11:43:09;4.03;;;3.03;;
18280;SDS011;9266;51.132;17.062;2023-12-20T11:45:36;5.73;;;3.03;;
18280;SDS011;9266;51.132;17.062;2023-12-20T11:48:04;4.00;;;2.53;;
18280;SDS011;9266;51.132;17.062;2023-12-20T11:50:32;4.63;;;2.40;;
18280;SDS011;9266;51.132;17.062;2023-12-20T11:53:01;4.97;;;2.80;;
18280;SDS011;9266;51.132;17.062;2023-12-20T11:55:28;4.70;;;2.90;;
18280;SDS011;9266;51.132;17.062;2023-12-20T11:57:55;2.80;;;2.50;;
18280;SDS011;9266;51.132;17.062;2023-12-20T12:00:23;4.10;;;2.50;;
18280;SDS011;9266;51.132;17.062;2023-12-20T12:02:55;4.60;;;2.67;;
18280;SDS011;9266;51.132;17.062;2023-12-20T12:05:22;2.67;;;2.33;;
18280;SDS011;9266;51.132;17.062;2023-12-20T12:07:56;5.57;;;2.73;;
18280;SDS011;9266;51.132;17.062;2023-12-20T12:10:24;3.60;;;2.80;;
18280;SDS011;9266;51.132;17.062;2023-12-20T12:12:51;5.67;;;3.50;;
18280;SDS011;9266;51.132;17.062;2023-12-20T12:15:19;6.03;;;2.57;;
18280;SDS011;9266;51.132;17.062;2023-12-20T12:17:52;4.50;;;2.70;;
18280;SDS011;9266;51.132;17.062;2023-12-20T12:20:20;6.13;;;2.90;;
18280;SDS011;9266;51.132;17.062;2023-12-20T12:22:56;4.57;;;3.00;;
18280;SDS011;9266;51.132;17.062;2023-12-20T12:25:26;6.53;;;2.80;;
18280;SDS011;9266;51.132;17.062;2023-12-20T12:27:55;3.00;;;2.70;;
18280;SDS011;9266;51.132;17.062;2023-12-20T12:30:22;5.53;;;3.10;;
18280;SDS011;9266;51.132;17.062;2023-12-20T12:32:50;6.30;;;3.67;;
18280;SDS011;9266;51.132;17.062;2023-12-20T12:35:18;4.00;;;2.43;;
18280;SDS011;9266;51.132;17.062;2023-12-20T12:37:45;3.80;;;2.60;;
18280;SDS011;9266;51.132;17.062;2023-12-20T12:40:13;3.20;;;2.90;;
18280;SDS011;9266;51.132;17.062;2023-12-20T12:42:43;4.57;;;2.80;;
18280;SDS011;9266;51.132;17.062;2023-12-20T12:45:11;4.83;;;2.70;;
18280;SDS011;9266;51.132;17.062;2023-12-20T12:47:38;3.90;;;2.60;;
18280;SDS011;9266;51.132;17.062;2023-12-20T12:50:06;3.77;;;2.50;;
18280;SDS011;9266;51.132;17.062;2023-12-20T12:52:33;4.00;;;2.93;;
18280;SDS011;9266;51.132;17.062;2023-12-20T12:55:01;5.50;;;2.80;;
18280;SDS011;9266;51.132;17.062;2023-12-20T12:57:28;5.47;;;2.83;;
18280;SDS011;9266;51.132;17.062;2023-12-20T12:59:56;5.23;;;2.80;;
18280;SDS011;9266;51.132;17.062;2023-12-20T13:02:26;5.27;;;2.90;;
18280;SDS011;9266;51.132;17.062;2023-12-20T13:04:53;2.93;;;2.57;;
18280;SDS011;9266;51.132;17.062;2023-12-20T13:07:21;4.20;;;2.67;;
18280;SDS011;9266;51.132;17.062;2023-12-20T13:09:51;6.33;;;2.83;;
18280;SDS011;9266;51.132;17.062;2023-12-20T13:12:20;3.77;;;2.67;;
18280;SDS011;9266;51.132;17.062;2023-12-20T13:14:47;3.53;;;2.40;;
18280;SDS011;9266;51.132;17.062;2023-12-20T13:17:15;5.00;;;2.90;;
18280;SDS011;9266;51.132;17.062;2023-12-20T13:19:42;5.57;;;3.00;;
18280;SDS011;9266;51.132;17.062;2023-12-20T13:22:09;5.60;;;2.70;;
18280;SDS011;9266;51.132;17.062;2023-12-20T13:24:36;7.33;;;4.03;;
18280;SDS011;9266;51.132;17.062;2023-12-20T13:27:03;6.57;;;2.93;;
18280;SDS011;9266;51.132;17.062;2023-12-20T13:29:30;5.07;;;3.03;;
18280;SDS011;9266;51.132;17.062;2023-12-20T13:31:57;3.27;;;2.60;;
18280;SDS011;9266;51.132;17.062;2023-12-20T13:34:26;5.73;;;2.90;;
18280;SDS011;9266;51.132;17.062;2023-12-20T13:36:53;5.67;;;2.87;;
18280;SDS011;9266;51.132;17.062;2023-12-20T13:39:21;7.57;;;4.20;;
18280;SDS011;9266;51.132;17.062;2023-12-20T13:41:48;4.63;;;2.23;;
18280;SDS011;9266;51.132;17.062;2023-12-20T13:44:16;5.53;;;2.87;;
18280;SDS011;9266;51.132;17.062;2023-12-20T13:46:43;5.27;;;2.83;;
18280;SDS011;9266;51.132;17.062;2023-12-20T13:49:10;10.33;;;3.83;;
18280;SDS011;9266;51.132;17.062;2023-12-20T13:51:40;4.53;;;2.83;;
18280;SDS011;9266;51.132;17.062;2023-12-20T13:54:07;6.57;;;2.90;;
18280;SDS011;9266;51.132;17.062;2023-12-20T13:56:36;7.47;;;3.50;;
18280;SDS011;9266;51.132;17.062;2023-12-20T13:59:03;5.67;;;3.20;;
18280;SDS011;9266;51.132;17.062;2023-12-20T14:01:30;5.47;;;3.10;;
18280;SDS011;9266;51.132;17.062;2023-12-20T14:03:57;9.33;;;3.63;;
18280;SDS011;9266;51.132;17.062;2023-12-20T14:06:26;8.80;;;4.00;;
18280;SDS011;9266;51.132;17.062;2023-12-20T14:08:54;11.30;;;3.83;;
18280;SDS011;9266;51.132;17.062;2023-12-20T14:11:22;10.80;;;3.97;;
18280;SDS011;9266;51.132;17.062;2023-12-20T14:13:49;8.13;;;3.50;;
18280;SDS011;9266;51.132;17.062;2023-12-20T14:16:16;8.93;;;3.67;;
18280;SDS011;9266;51.132;17.062;2023-12-20T14:18:43;7.40;;;3.87;;
18280;SDS011;9266;51.132;17.062;2023-12-20T14:21:10;5.97;;;3.10;;
18280;SDS011;9266;51.132;17.062;2023-12-20T14:23:37;6.87;;;3.13;;
18280;SDS011;9266;51.132;17.062;2023-12-20T14:26:05;4.43;;;2.73;;
18280;SDS011;9266;51.132;17.062;2023-12-20T14:28:32;6.90;;;2.87;;
18280;SDS011;9266;51.132;17.062;2023-12-20T14:30:59;5.60;;;2.97;;
18280;SDS011;9266;51.132;17.062;2023-12-20T14:33:26;4.97;;;2.70;;
18280;SDS011;9266;51.132;17.062;2023-12-20T14:35:53;4.83;;;2.80;;
18280;SDS011;9266;51.132;17.062;2023-12-20T14:38:20;5.03;;;2.47;;
18280;SDS011;9266;51.132;17.062;2023-12-20T14:40:47;5.17;;;3.30;;
18280;SDS011;9266;51.132;17.062;2023-12-20T14:43:16;5.33;;;3.53;;
18280;SDS011;9266;51.132;17.062;2023-12-20T14:45:43;5.90;;;3.83;;
18280;SDS011;9266;51.132;17.062;2023-12-20T14:48:10;7.63;;;3.30;;
18280;SDS011;9266;51.132;17.062;2023-12-20T14:50:37;7.83;;;3.57;;
18280;SDS011;9266;51.132;17.062;2023-12-20T14:53:05;10.67;;;5.00;;